Terminal Aerodrome Forecast
Issued by NWS Wichita, KS

Home | Current Version | Previous Version | Text Only | Print | Product List | Glossary Off
Versions: 1 2 3 4 5 6 7 8 9 10 11 12 13 14 15 16 17 18 19 20 21 22 23

000
FTUS43 KICT 231403 AAB
TAFICT
TAF AMD
KICT 231403Z 2314/2412 18017G26KT P6SM BKN013 OVC050
     FM231500 18017G26KT P6SM SCT015 BKN050
     FM231800 18022G30KT P6SM SCT035
     FM240100 18017KT P6SM SCT035=

USA.gov is the U.S. government's official web portal to all federal, state and local government web resources and services.